Time;durP1;ratioP1;P1;durP2;ratioP2;P2;SDS_P1;SDS_P2;PMS_P1;PMS_P2;Temp;Humidity;BMP_temperature;BMP_pressure;BME280_temperature;BME280_humidity;BME280_pressure;Samples;Min_cycle;Max_cycle;Signal;HPM_P1;HPM_P2
2023/04/17 00:01:41;;;;;;;1.48;0.70;;;12.90;70.90;;;;;;5053882;28;20458;-70
2023/04/17 00:04:11;;;;;;;1.05;0.60;;;12.90;70.90;;;;;;5053738;28;20056;-68
2023/04/17 00:06:37;;;;;;;2.20;0.80;;;12.90;71.00;;;;;;5053766;28;20041;-69
2023/04/17 00:09:03;;;;;;;0.98;0.63;;;12.90;71.20;;;;;;5053685;28;20445;-70
2023/04/17 00:11:29;;;;;;;2.00;0.80;;;12.90;71.20;;;;;;5053642;28;20059;-70
2023/04/17 00:13:55;;;;;;;2.90;0.90;;;12.90;71.50;;;;;;5053642;28;20482;-69
2023/04/17 00:16:20;;;;;;;1.92;0.90;;;12.90;71.80;;;;;;5053487;28;20041;-69
2023/04/17 00:18:46;;;;;;;1.42;0.73;;;12.90;71.90;;;;;;5067174;28;20041;-68
2023/04/17 00:21:12;;;;;;;1.63;0.60;;;12.90;71.90;;;;;;5052967;28;20047;-69
2023/04/17 00:23:38;;;;;;;1.27;0.70;;;12.80;71.90;;;;;;5053258;28;20040;-69
2023/04/17 00:26:04;;;;;;;1.58;0.63;;;12.80;72.30;;;;;;5053100;28;20025;-69
2023/04/17 00:28:31;;;;;;;1.15;0.80;;;12.80;72.40;;;;;;5053327;28;20104;-69
2023/04/17 00:30:57;;;;;;;1.63;0.80;;;12.80;72.50;;;;;;5053280;28;20044;-69
2023/04/17 00:33:23;;;;;;;2.03;0.80;;;12.80;72.30;;;;;;5052963;28;20033;-70
2023/04/17 00:35:50;;;;;;;2.00;0.80;;;12.80;72.40;;;;;;5053167;28;20710;-70
2023/04/17 00:38:15;;;;;;;0.85;0.70;;;12.80;72.40;;;;;;5053021;28;20029;-70
2023/04/17 00:40:41;;;;;;;2.00;0.90;;;12.80;72.70;;;;;;5053248;28;20446;-70
2023/04/17 00:43:07;;;;;;;3.60;0.90;;;12.80;72.50;;;;;;5053029;28;20425;-70
2023/04/17 00:45:34;;;;;;;1.60;0.80;;;12.80;73.20;;;;;;5053153;28;20095;-70
2023/04/17 00:48:02;;;;;;;0.93;0.70;;;12.80;72.50;;;;;;5052844;28;20045;-69
2023/04/17 00:50:28;;;;;;;1.52;0.90;;;12.70;72.50;;;;;;5052951;28;20392;-70
2023/04/17 00:52:54;;;;;;;3.80;0.90;;;12.70;72.80;;;;;;5068094;28;20406;-70
2023/04/17 00:55:20;;;;;;;0.60;0.60;;;12.70;72.80;;;;;;5052918;28;20047;-69
2023/04/17 00:57:48;;;;;;;1.42;0.70;;;12.60;72.90;;;;;;5052875;28;20067;-70
2023/04/17 01:00:15;;;;;;;0.85;0.60;;;12.60;73.20;;;;;;5034369;28;20033;-70
2023/04/17 01:02:41;;;;;;;2.80;0.75;;;12.60;73.20;;;;;;5034769;28;20056;-69
2023/04/17 01:05:07;;;;;;;1.17;0.80;;;12.60;73.30;;;;;;5052361;28;20494;-71
2023/04/17 01:07:33;;;;;;;1.52;0.88;;;12.60;73.20;;;;;;5052650;28;20456;-71
2023/04/17 01:09:59;;;;;;;1.88;0.90;;;12.60;73.30;;;;;;5052529;28;20037;-70
2023/04/17 01:12:25;;;;;;;1.80;0.70;;;12.60;73.20;;;;;;5052695;28;20029;-70
2023/04/17 01:14:52;;;;;;;1.38;0.90;;;12.50;73.00;;;;;;5052397;28;20041;-71
2023/04/17 01:17:19;;;;;;;0.90;0.70;;;12.60;73.30;;;;;;5052328;28;20486;-71
2023/04/17 01:19:46;;;;;;;0.75;0.60;;;12.50;73.20;;;;;;5052491;28;20048;-70
2023/04/17 01:22:11;;;;;;;2.53;0.93;;;12.60;73.40;;;;;;5052332;28;20087;-69
2023/04/17 01:24:37;;;;;;;1.75;0.93;;;12.60;73.30;;;;;;5052128;28;20395;-71
2023/04/17 01:27:05;;;;;;;1.38;0.90;;;12.60;73.10;;;;;;5052491;28;20035;-70
2023/04/17 01:29:31;;;;;;;2.05;0.82;;;12.60;73.10;;;;;;5052304;28;20041;-71
2023/04/17 01:31:57;;;;;;;1.17;0.77;;;12.50;73.00;;;;;;5051868;28;20398;-70
2023/04/17 01:34:22;;;;;;;1.65;1.00;;;12.50;73.10;;;;;;5034106;28;20095;-70
2023/04/17 01:36:48;;;;;;;3.53;0.77;;;12.50;73.10;;;;;;5052356;28;20404;-70
2023/04/17 01:39:14;;;;;;;1.90;1.00;;;12.50;73.10;;;;;;5052082;28;20072;-70
2023/04/17 01:41:40;;;;;;;1.73;1.00;;;12.50;73.20;;;;;;5051707;28;20025;-70
2023/04/17 01:44:05;;;;;;;1.25;0.98;;;12.50;73.00;;;;;;5051910;28;20049;-70
2023/04/17 01:46:31;;;;;;;1.38;0.98;;;12.50;73.40;;;;;;5051923;28;20040;-70
2023/04/17 01:48:56;;;;;;;1.73;1.10;;;12.50;73.40;;;;;;5051868;28;20082;-70
2023/04/17 01:51:22;;;;;;;1.95;0.90;;;12.50;73.30;;;;;;5051749;28;20486;-70
2023/04/17 01:53:48;;;;;;;2.65;0.90;;;12.50;73.10;;;;;;5051863;28;20033;-70
2023/04/17 01:56:13;;;;;;;1.67;1.00;;;12.60;73.10;;;;;;5051912;28;20037;-70
2023/04/17 01:58:39;;;;;;;1.23;1.00;;;12.60;72.80;;;;;;5052050;28;20041;-70
2023/04/17 02:01:05;;;;;;;1.10;0.90;;;12.60;72.70;;;;;;5051877;28;20041;-70
2023/04/17 02:03:31;;;;;;;1.38;0.90;;;12.50;72.60;;;;;;5051760;28;20048;-69
2023/04/17 02:05:57;;;;;;;2.05;1.00;;;12.50;72.70;;;;;;5051904;28;20079;-69
2023/04/17 02:08:23;;;;;;;1.92;1.00;;;12.50;72.60;;;;;;5051711;28;20119;-70
2023/04/17 02:10:49;;;;;;;2.60;0.90;;;12.50;72.60;;;;;;5051796;28;20108;-70
2023/04/17 02:13:15;;;;;;;1.27;0.70;;;12.50;72.70;;;;;;5051750;28;20033;-70
2023/04/17 02:15:41;;;;;;;3.25;0.90;;;12.40;72.50;;;;;;5051841;28;20397;-70
2023/04/17 02:18:08;;;;;;;2.35;1.00;;;12.40;72.70;;;;;;5051631;28;20119;-72
2023/04/17 02:20:34;;;;;;;2.40;1.10;;;12.50;72.80;;;;;;5051604;28;20044;-72
2023/04/17 02:23:01;;;;;;;2.42;1.00;;;12.50;72.80;;;;;;5051581;28;20033;-71
2023/04/17 02:25:28;;;;;;;2.70;1.00;;;12.50;72.80;;;;;;5051479;28;20451;-71
2023/04/17 02:27:55;;;;;;;3.13;0.90;;;12.50;72.80;;;;;;5051246;28;20041;-70
2023/04/17 02:30:21;;;;;;;1.73;1.00;;;12.40;72.60;;;;;;5051143;28;20032;-71
2023/04/17 02:32:50;;;;;;;2.53;1.15;;;12.40;72.70;;;;;;5051382;28;20044;-70
2023/04/17 02:35:16;;;;;;;3.40;0.93;;;12.40;72.60;;;;;;5051563;28;20048;-70
2023/04/17 02:37:42;;;;;;;1.90;1.20;;;12.40;72.70;;;;;;5051706;28;20032;-70
2023/04/17 02:40:09;;;;;;;3.15;1.20;;;12.40;72.70;;;;;;5051490;28;20049;-70
2023/04/17 02:42:35;;;;;;;1.73;1.10;;;12.40;72.60;;;;;;5051488;28;20475;-70
2023/04/17 02:45:01;;;;;;;2.15;1.00;;;12.40;72.70;;;;;;5051383;28;20116;-69
2023/04/17 02:47:26;;;;;;;2.10;1.00;;;12.40;72.70;;;;;;5066948;28;20437;-70
2023/04/17 02:49:53;;;;;;;1.48;0.90;;;12.40;72.70;;;;;;5053699;28;20026;-70
2023/04/17 02:52:19;;;;;;;1.73;0.80;;;12.30;72.70;;;;;;5055155;28;20058;-70
2023/04/17 02:54:45;;;;;;;1.40;0.93;;;12.30;72.70;;;;;;5055111;28;20084;-70
2023/04/17 02:57:10;;;;;;;2.35;1.17;;;12.30;72.80;;;;;;5054739;28;20033;-70
2023/04/17 02:59:36;;;;;;;2.60;1.10;;;12.30;73.00;;;;;;5055252;28;20033;-71
2023/04/17 03:02:03;;;;;;;1.58;1.00;;;12.30;73.10;;;;;;5054975;28;20462;-72
2023/04/17 03:04:28;;;;;;;4.10;1.00;;;12.30;72.80;;;;;;5054861;28;20120;-72
2023/04/17 03:06:54;;;;;;;2.22;1.15;;;12.30;72.70;;;;;;5054786;28;20128;-70
2023/04/17 03:09:21;;;;;;;2.38;1.00;;;12.30;72.70;;;;;;5036929;28;20033;-72
2023/04/17 03:11:47;;;;;;;2.10;1.17;;;12.30;72.70;;;;;;5054684;28;20029;-72
2023/04/17 03:14:14;;;;;;;2.40;1.17;;;12.30;72.60;;;;;;5054857;28;20072;-70
2023/04/17 03:16:39;;;;;;;2.00;1.30;;;12.30;72.70;;;;;;5070195;28;20033;-70
2023/04/17 03:19:05;;;;;;;1.55;1.00;;;12.30;72.60;;;;;;5054459;28;20071;-71
2023/04/17 03:21:31;;;;;;;4.00;1.35;;;12.30;72.60;;;;;;5054616;28;20148;-71
2023/04/17 03:23:57;;;;;;;2.75;1.20;;;12.40;72.40;;;;;;5054904;28;20068;-71
2023/04/17 03:26:22;;;;;;;2.13;1.30;;;12.30;72.30;;;;;;5054431;28;20033;-70
2023/04/17 03:28:48;;;;;;;2.65;1.10;;;12.30;73.00;;;;;;5054260;28;20120;-70
2023/04/17 03:31:14;;;;;;;2.35;1.23;;;12.30;72.30;;;;;;5054334;28;20549;-70
2023/04/17 03:33:40;;;;;;;3.63;1.42;;;12.30;72.20;;;;;;5054406;28;20037;-70
2023/04/17 03:36:06;;;;;;;4.30;1.90;;;12.30;71.90;;;;;;5054324;28;20479;-70
2023/04/17 03:38:33;;;;;;;5.40;1.70;;;12.30;72.10;;;;;;5054123;28;20065;-71
2023/04/17 03:40:59;;;;;;;3.67;1.67;;;12.30;72.10;;;;;;5054021;28;20040;-70
2023/04/17 03:43:25;;;;;;;8.77;3.38;;;12.30;72.10;;;;;;5054460;28;20029;-69
2023/04/17 03:45:50;;;;;;;3.90;1.63;;;12.40;72.70;;;;;;5054059;28;20108;-71
2023/04/17 03:48:16;;;;;;;4.45;1.80;;;12.50;72.30;;;;;;5054204;28;20040;-70
2023/04/17 03:50:42;;;;;;;3.17;1.50;;;12.40;72.20;;;;;;5054367;28;20080;-71
2023/04/17 03:53:07;;;;;;;3.63;1.50;;;12.40;72.00;;;;;;5054192;28;20040;-70
2023/04/17 03:55:34;;;;;;;4.82;2.33;;;12.40;72.00;;;;;;5053807;28;20037;-71
2023/04/17 03:58:00;;;;;;;8.32;1.80;;;12.50;72.00;;;;;;5053961;28;20051;-69
2023/04/17 04:00:26;;;;;;;3.95;1.83;;;12.40;71.80;;;;;;5053643;28;20041;-70
2023/04/17 04:02:52;;;;;;;4.10;1.90;;;12.40;71.60;;;;;;5053760;28;20028;-69
2023/04/17 04:05:18;;;;;;;4.05;1.63;;;12.40;71.60;;;;;;5054108;28;20029;-70
2023/04/17 04:07:43;;;;;;;4.03;1.70;;;12.40;71.80;;;;;;5053830;28;20033;-70
2023/04/17 04:10:09;;;;;;;4.85;1.95;;;12.40;71.50;;;;;;5053689;28;20090;-72
2023/04/17 04:12:35;;;;;;;2.30;1.40;;;12.40;71.60;;;;;;5054203;28;20036;-70
2023/04/17 04:15:01;;;;;;;5.15;2.00;;;12.40;71.50;;;;;;5053656;28;20045;-69
2023/04/17 04:17:26;;;;;;;3.53;1.80;;;12.40;71.60;;;;;;5053708;28;20087;-70
2023/04/17 04:19:52;;;;;;;3.60;1.70;;;12.40;71.60;;;;;;5053574;28;20068;-71
2023/04/17 04:22:20;;;;;;;2.72;1.50;;;12.40;71.70;;;;;;5053483;28;20029;-70
2023/04/17 04:24:46;;;;;;;3.72;1.67;;;12.40;71.70;;;;;;5053329;28;20484;-71
2023/04/17 04:27:12;;;;;;;3.20;1.75;;;12.30;71.80;;;;;;5053524;28;20151;-70
2023/04/17 04:29:37;;;;;;;3.33;1.75;;;12.40;72.00;;;;;;5053339;28;20398;-70
2023/04/17 04:32:03;;;;;;;5.20;1.80;;;12.40;72.00;;;;;;5035554;28;20029;-70
2023/04/17 04:34:29;;;;;;;6.18;1.90;;;12.40;72.00;;;;;;5053229;28;20041;-69
2023/04/17 04:36:55;;;;;;;4.45;2.30;;;12.30;72.00;;;;;;5053628;28;20428;-70
2023/04/17 04:39:21;;;;;;;4.78;1.90;;;12.30;72.00;;;;;;5053010;28;20103;-71
2023/04/17 04:41:50;;;;;;;2.97;1.88;;;12.30;72.20;;;;;;5068714;28;20494;-71
2023/04/17 04:44:19;;;;;;;5.68;2.13;;;12.30;72.00;;;;;;5035204;28;20493;-70
2023/04/17 04:46:45;;;;;;;4.10;1.98;;;12.30;72.40;;;;;;5053762;28;20037;-70
2023/04/17 04:49:12;;;;;;;4.85;2.20;;;12.30;72.20;;;;;;5053373;28;20036;-70
2023/04/17 04:51:38;;;;;;;4.70;2.00;;;12.30;72.30;;;;;;5053267;28;20033;-70
2023/04/17 04:54:04;;;;;;;6.18;2.35;;;12.30;72.20;;;;;;5052943;28;20033;-70
2023/04/17 04:56:30;;;;;;;4.22;2.30;;;12.40;72.40;;;;;;5052540;28;20036;-69
2023/04/17 04:58:56;;;;;;;5.22;2.17;;;12.40;72.40;;;;;;5052639;28;20033;-71
2023/04/17 05:01:22;;;;;;;4.60;2.75;;;12.40;72.10;;;;;;5052587;28;20507;-72
2023/04/17 05:03:48;;;;;;;4.00;2.50;;;12.50;72.30;;;;;;5052855;28;20029;-69
2023/04/17 05:06:13;;;;;;;5.38;2.58;;;12.50;72.40;;;;;;5052761;28;20402;-70
2023/04/17 05:08:40;;;;;;;5.75;2.83;;;12.60;72.60;;;;;;5052685;28;20091;-69
2023/04/17 05:11:05;;;;;;;4.45;2.47;;;12.60;72.50;;;;;;5052119;28;20394;-70
2023/04/17 05:13:31;;;;;;;3.97;2.17;;;12.60;72.30;;;;;;5052177;28;20033;-71
2023/04/17 05:15:57;;;;;;;7.35;2.78;;;12.60;72.20;;;;;;5067882;28;20045;-71
2023/04/17 05:18:23;;;;;;;6.00;2.80;;;12.60;72.20;;;;;;5052638;28;20079;-71
2023/04/17 05:20:50;;;;;;;5.43;2.70;;;12.60;72.30;;;;;;5052225;28;20041;-70
2023/04/17 05:23:16;;;;;;;6.38;2.75;;;12.70;72.30;;;;;;5052398;28;20043;-71
2023/04/17 05:25:42;;;;;;;6.40;2.50;;;12.70;72.30;;;;;;5052478;28;20033;-73
2023/04/17 05:28:07;;;;;;;5.68;2.60;;;12.70;72.40;;;;;;5052195;28;20094;-70
2023/04/17 05:30:33;;;;;;;6.20;2.35;;;12.70;72.30;;;;;;5052349;28;20134;-70
2023/04/17 05:32:59;;;;;;;5.20;2.88;;;12.70;72.40;;;;;;5052289;28;20037;-70
2023/04/17 05:35:26;;;;;;;5.35;2.92;;;12.70;72.50;;;;;;5052116;28;20052;-71
2023/04/17 05:37:53;;;;;;;8.93;2.95;;;12.70;72.40;;;;;;5052007;28;20029;-71
2023/04/17 05:40:18;;;;;;;4.80;2.85;;;12.80;72.40;;;;;;5051907;28;20057;-70
2023/04/17 05:42:44;;;;;;;5.53;2.85;;;12.80;72.30;;;;;;5052192;28;20140;-71
2023/04/17 05:45:17;;;;;;;13.63;3.05;;;12.80;72.30;;;;;;5051979;28;20115;-70
2023/04/17 05:47:43;;;;;;;5.93;3.00;;;12.80;72.50;;;;;;5052051;28;20033;-69
2023/04/17 05:50:09;;;;;;;7.63;2.90;;;12.90;72.50;;;;;;5051757;28;20039;-70
2023/04/17 05:52:35;;;;;;;4.78;2.70;;;12.90;72.30;;;;;;5052028;28;20372;-70
2023/04/17 05:55:01;;;;;;;7.78;3.30;;;13.00;72.50;;;;;;5051919;28;20107;-71
2023/04/17 05:57:28;;;;;;;4.90;2.78;;;13.00;72.20;;;;;;5052056;28;20517;-71
2023/04/17 05:59:53;;;;;;;5.78;3.00;;;13.00;72.30;;;;;;5052138;28;20037;-70
2023/04/17 06:02:19;;;;;;;5.25;2.95;;;13.10;72.20;;;;;;5052249;28;20033;-71
2023/04/17 06:04:45;;;;;;;7.18;3.40;;;13.10;72.30;;;;;;5052051;28;20048;-70
2023/04/17 06:07:11;;;;;;;6.75;2.83;;;13.10;71.90;;;;;;5051865;28;20437;-71
2023/04/17 06:09:37;;;;;;;6.13;3.08;;;13.20;72.00;;;;;;5051792;28;20154;-71
2023/04/17 06:12:04;;;;;;;7.60;2.97;;;13.30;71.90;;;;;;5052065;28;20029;-71
2023/04/17 06:14:30;;;;;;;5.93;3.60;;;13.30;71.70;;;;;;5051847;28;20505;-70
2023/04/17 06:16:56;;;;;;;7.85;3.10;;;13.30;71.80;;;;;;5051698;28;20025;-71
2023/04/17 06:19:23;;;;;;;6.05;2.97;;;13.30;71.70;;;;;;5051857;28;20068;-71
2023/04/17 06:21:49;;;;;;;6.55;3.13;;;13.30;71.70;;;;;;5051946;28;20032;-70
2023/04/17 06:24:15;;;;;;;4.82;3.15;;;13.30;71.60;;;;;;5054797;28;20244;-71
2023/04/17 06:26:40;;;;;;;5.53;3.10;;;13.40;71.70;;;;;;5055827;28;20074;-71
2023/04/17 06:29:07;;;;;;;6.40;3.35;;;13.50;71.60;;;;;;5055553;28;20124;-74
2023/04/17 06:31:33;;;;;;;5.47;3.33;;;13.50;71.40;;;;;;5055382;28;20068;-71
2023/04/17 06:33:59;;;;;;;7.57;3.75;;;13.60;71.50;;;;;;5055427;28;20037;-73
2023/04/17 06:36:26;;;;;;;7.25;3.40;;;13.60;71.30;;;;;;5055379;28;20400;-72
2023/04/17 06:38:51;;;;;;;6.03;3.40;;;13.70;71.10;;;;;;5055175;28;20537;-72
2023/04/17 06:41:17;;;;;;;7.95;3.00;;;13.80;71.20;;;;;;5055154;28;20037;-71
2023/04/17 06:43:43;;;;;;;7.50;3.53;;;13.80;70.90;;;;;;5055218;28;20123;-71
2023/04/17 06:46:09;;;;;;;5.45;3.17;;;13.80;70.70;;;;;;5037156;28;20124;-73
2023/04/17 06:48:34;;;;;;;5.15;3.15;;;13.80;70.40;;;;;;5055203;28;20511;-71
2023/04/17 06:51:00;;;;;;;8.10;3.17;;;13.80;70.10;;;;;;5055196;28;20339;-71
2023/04/17 06:53:26;;;;;;;8.05;3.40;;;13.80;70.30;;;;;;5055148;28;20112;-72
2023/04/17 06:55:53;;;;;;;6.45;2.88;;;13.80;70.00;;;;;;5054985;28;20086;-70
2023/04/17 06:58:18;;;;;;;8.95;3.30;;;13.80;69.80;;;;;;5054910;28;20041;-71
2023/04/17 07:00:44;;;;;;;7.75;4.53;;;13.80;70.00;;;;;;5054929;28;20456;-71
2023/04/17 07:03:11;;;;;;;5.05;3.25;;;13.80;69.70;;;;;;5054812;28;20060;-71
2023/04/17 07:05:36;;;;;;;4.68;3.17;;;13.70;69.80;;;;;;5054726;28;20036;-71
2023/04/17 07:08:02;;;;;;;8.93;3.50;;;13.80;69.70;;;;;;5054439;28;20379;-70
2023/04/17 07:10:28;;;;;;;21.52;3.95;;;13.80;69.30;;;;;;5054768;28;20104;-72
2023/04/17 07:12:54;;;;;;;5.40;3.10;;;13.80;69.40;;;;;;5054852;28;20033;-71
2023/04/17 07:15:19;;;;;;;7.22;3.35;;;13.80;69.40;;;;;;5054402;28;20048;-71
2023/04/17 07:17:45;;;;;;;7.00;3.13;;;13.80;69.10;;;;;;5054764;28;20033;-71
2023/04/17 07:20:11;;;;;;;6.90;3.00;;;13.80;69.10;;;;;;5054742;28;20400;-71
2023/04/17 07:22:37;;;;;;;6.00;2.92;;;13.90;68.70;;;;;;5054608;28;20048;-71
2023/04/17 07:25:04;;;;;;;6.57;3.30;;;14.00;68.60;;;;;;5054594;28;20036;-71
2023/04/17 07:27:30;;;;;;;9.07;3.13;;;14.10;68.80;;;;;;5054610;28;20033;-71
2023/04/17 07:29:55;;;;;;;6.55;3.10;;;14.10;68.30;;;;;;5054565;28;20029;-72
2023/04/17 07:32:25;;;;;;;8.10;3.40;;;14.10;68.10;;;;;;5054153;28;20040;-71
2023/04/17 07:34:51;;;;;;;7.80;3.03;;;14.20;68.00;;;;;;5035321;28;20048;-72
2023/04/17 07:37:16;;;;;;;9.80;3.58;;;14.10;67.60;;;;;;5054353;28;20033;-71
2023/04/17 07:39:42;;;;;;;5.35;3.13;;;14.20;67.70;;;;;;5054141;28;20091;-70
2023/04/17 07:42:09;;;;;;;6.00;3.15;;;14.20;67.60;;;;;;5054300;28;20120;-71
2023/04/17 07:44:35;;;;;;;6.05;3.00;;;14.30;67.60;;;;;;5054331;28;20384;-71
2023/04/17 07:47:00;;;;;;;5.20;3.00;;;14.40;67.10;;;;;;5054058;28;20164;-70
2023/04/17 07:49:26;;;;;;;6.30;3.47;;;14.40;67.20;;;;;;5053992;28;20159;-71
2023/04/17 07:51:53;;;;;;;7.75;3.30;;;14.50;67.20;;;;;;5054014;28;20033;-71
2023/04/17 07:54:18;;;;;;;6.45;3.10;;;14.60;66.60;;;;;;5053864;28;20045;-70
2023/04/17 07:56:48;;;;;;;7.00;2.92;;;14.70;66.60;;;;;;5053866;28;20033;-72
2023/04/17 07:59:15;;;;;;;11.90;3.33;;;14.80;66.50;;;;;;5053908;28;20172;-71
2023/04/17 08:01:40;;;;;;;6.65;3.25;;;14.90;65.50;;;;;;5054166;28;20037;-72
2023/04/17 08:04:06;;;;;;;5.05;2.70;;;15.00;65.00;;;;;;5053733;28;20079;-71
2023/04/17 08:06:32;;;;;;;5.53;3.03;;;15.10;65.00;;;;;;5053640;28;20398;-71
2023/04/17 08:08:59;;;;;;;6.75;2.88;;;15.10;64.60;;;;;;5053903;28;20041;-71
2023/04/17 08:11:25;;;;;;;8.65;3.28;;;15.30;64.10;;;;;;5053714;28;20447;-71
2023/04/17 08:13:51;;;;;;;7.63;3.15;;;15.30;64.00;;;;;;5053365;28;20069;-70
2023/04/17 08:16:16;;;;;;;6.55;2.90;;;15.40;63.80;;;;;;5053419;28;20479;-71
2023/04/17 08:18:42;;;;;;;5.95;3.00;;;15.60;63.60;;;;;;5053956;28;20036;-71
2023/04/17 08:21:08;;;;;;;6.53;3.05;;;15.60;63.60;;;;;;5035557;28;20466;-71
2023/04/17 08:23:34;;;;;;;6.72;2.45;;;15.70;63.00;;;;;;5053591;28;20100;-72
2023/04/17 08:25:59;;;;;;;5.47;2.95;;;15.80;63.50;;;;;;5053693;28;20033;-71
2023/04/17 08:28:25;;;;;;;5.60;2.90;;;15.90;63.40;;;;;;5053152;28;20040;-71
2023/04/17 08:30:51;;;;;;;5.55;3.08;;;16.00;63.10;;;;;;5053715;28;20047;-70
2023/04/17 08:33:17;;;;;;;8.77;2.83;;;16.00;63.30;;;;;;5053633;28;20040;-68
2023/04/17 08:35:43;;;;;;;4.63;2.67;;;16.20;63.20;;;;;;5035488;28;20473;-71
2023/04/17 08:38:12;;;;;;;6.25;3.20;;;16.20;62.30;;;;;;5052816;28;20040;-71
2023/04/17 08:40:41;;;;;;;8.27;3.10;;;16.30;62.50;;;;;;5053111;28;20486;-72
2023/04/17 08:43:15;;;;;;;4.78;2.65;;;16.40;62.60;;;;;;5052691;28;20032;-70
2023/04/17 08:45:54;;;;;;;4.32;2.70;;;16.50;62.20;;;;;;5052973;28;20029;-71
2023/04/17 08:48:21;;;;;;;6.43;2.85;;;16.50;62.30;;;;;;5052695;28;20104;-71
2023/04/17 08:50:48;;;;;;;5.22;2.72;;;16.60;61.00;;;;;;5052910;28;20437;-73
2023/04/17 08:53:15;;;;;;;5.75;2.40;;;16.60;61.10;;;;;;5052886;28;20086;-71
2023/04/17 08:55:42;;;;;;;4.35;2.22;;;16.70;60.70;;;;;;5052797;28;20045;-71
2023/04/17 08:58:08;;;;;;;4.53;2.53;;;16.80;60.20;;;;;;5052649;28;20136;-71
2023/04/17 09:00:35;;;;;;;5.55;2.70;;;16.90;60.30;;;;;;5052882;28;20108;-71
2023/04/17 09:03:03;;;;;;;4.43;2.47;;;17.00;59.80;;;;;;5052731;28;20033;-71
2023/04/17 09:05:32;;;;;;;3.83;2.20;;;17.00;60.00;;;;;;5052919;28;20044;-72
2023/04/17 09:08:16;;;;;;;4.53;2.30;;;17.10;60.00;;;;;;5052841;28;20086;-73
2023/04/17 09:10:44;;;;;;;4.25;2.30;;;17.30;58.80;;;;;;5052753;28;20059;-73
2023/04/17 09:13:13;;;;;;;5.68;2.40;;;17.40;59.10;;;;;;5052576;28;20029;-72
2023/04/17 09:15:40;;;;;;;4.78;2.22;;;17.50;57.70;;;;;;5052783;28;20037;-72
2023/04/17 09:18:26;;;;;;;5.20;2.20;;;17.50;56.80;;;;;;5052899;28;20505;-71
2023/04/17 09:20:52;;;;;;;3.55;2.03;;;17.70;57.50;;;;;;5052609;28;20044;-72
2023/04/17 09:23:19;;;;;;;3.63;2.05;;;17.80;56.30;;;;;;5052617;28;20033;-71
2023/04/17 09:25:45;;;;;;;5.78;2.40;;;17.80;56.10;;;;;;5052393;28;20045;-72
2023/04/17 09:28:15;;;;;;;5.68;2.30;;;17.80;56.50;;;;;;5052408;28;20108;-71
2023/04/17 09:30:41;;;;;;;5.95;2.50;;;17.90;56.40;;;;;;5067651;28;20049;-71
2023/04/17 09:33:09;;;;;;;3.60;2.10;;;17.90;56.30;;;;;;5052226;28;20037;-71
2023/04/17 20:38:19;;;;;;;6.53;3.13;;;16.80;56.70;;;;;;5074899;22;20050;-73
2023/04/17 20:40:45;;;;;;;5.72;3.20;;;16.80;56.20;;;;;;5053857;28;20053;-72
2023/04/17 20:43:11;;;;;;;6.95;3.20;;;16.70;56.30;;;;;;5053592;28;20433;-72
2023/04/17 20:45:37;;;;;;;6.70;3.47;;;16.70;56.50;;;;;;5053616;28;20482;-71
2023/04/17 20:48:03;;;;;;;7.30;3.35;;;16.70;56.60;;;;;;5053484;28;20043;-71
2023/04/17 20:50:29;;;;;;;6.82;3.30;;;16.70;56.60;;;;;;5053648;28;20033;-72
2023/04/17 20:52:55;;;;;;;6.50;3.38;;;16.70;56.70;;;;;;5053421;28;20560;-70
2023/04/17 20:55:20;;;;;;;6.45;3.20;;;16.60;57.00;;;;;;5053320;28;20306;-72
2023/04/17 20:57:47;;;;;;;6.38;3.50;;;16.60;57.10;;;;;;5053243;28;20021;-70
2023/04/17 21:00:14;;;;;;;7.80;3.55;;;16.60;57.30;;;;;;5035699;28;20057;-72
2023/04/17 21:02:40;;;;;;;7.40;3.95;;;16.60;57.50;;;;;;5053317;28;20021;-70
2023/04/17 21:05:06;;;;;;;7.05;3.70;;;16.60;57.70;;;;;;5053076;28;20482;-72
2023/04/17 21:07:32;;;;;;;6.72;3.40;;;16.60;58.00;;;;;;5053132;28;20116;-71
2023/04/17 21:09:58;;;;;;;6.35;3.60;;;16.50;58.10;;;;;;5052879;28;20180;-70
2023/04/17 21:12:23;;;;;;;6.57;3.80;;;16.50;58.40;;;;;;5053126;28;20566;-72
2023/04/17 21:14:49;;;;;;;8.40;3.67;;;16.50;58.60;;;;;;5052914;28;20415;-72
2023/04/17 21:17:15;;;;;;;7.95;3.78;;;16.50;58.60;;;;;;5052935;28;20033;-71
2023/04/17 21:19:40;;;;;;;6.63;3.92;;;16.50;58.90;;;;;;5053009;28;20033;-71
2023/04/17 21:22:06;;;;;;;6.55;3.70;;;16.50;59.00;;;;;;5052730;28;20025;-73
2023/04/17 21:24:32;;;;;;;6.55;3.90;;;16.50;59.30;;;;;;5053088;28;20063;-72
2023/04/17 21:26:58;;;;;;;8.30;4.15;;;16.50;59.10;;;;;;5053067;28;20033;-71
2023/04/17 21:29:26;;;;;;;6.82;4.05;;;16.50;59.40;;;;;;5052625;28;20033;-71
2023/04/17 21:31:51;;;;;;;8.32;4.03;;;16.50;59.60;;;;;;5052668;28;20040;-70
2023/04/17 21:34:17;;;;;;;8.85;3.63;;;16.40;59.70;;;;;;5052957;28;20029;-72
2023/04/17 21:36:43;;;;;;;7.85;3.83;;;16.40;59.80;;;;;;5052765;28;20433;-71
2023/04/17 21:39:08;;;;;;;8.20;3.90;;;16.40;60.00;;;;;;5052329;28;20052;-71
2023/04/17 21:41:34;;;;;;;6.65;3.88;;;16.40;60.00;;;;;;5052414;28;20478;-72
2023/04/17 21:44:01;;;;;;;5.68;2.92;;;16.40;59.80;;;;;;5052417;28;20043;-70
2023/04/17 21:46:28;;;;;;;6.10;3.70;;;16.40;59.80;;;;;;5034230;28;20505;-73
2023/04/17 21:48:54;;;;;;;5.40;3.50;;;16.40;59.60;;;;;;5052227;28;20071;-70
2023/04/17 21:51:20;;;;;;;6.15;3.20;;;16.40;59.40;;;;;;5052625;28;20080;-70
2023/04/17 21:53:46;;;;;;;7.72;3.58;;;16.40;59.20;;;;;;5051863;28;20037;-71
2023/04/17 21:56:12;;;;;;;7.50;3.35;;;16.40;59.30;;;;;;5052334;28;20056;-71
2023/04/17 21:58:37;;;;;;;7.05;3.10;;;16.40;59.10;;;;;;5052455;28;20112;-71
2023/04/17 22:01:03;;;;;;;5.65;3.38;;;16.40;59.10;;;;;;5052114;28;20033;-71
2023/04/17 22:03:29;;;;;;;6.85;3.47;;;16.40;59.10;;;;;;5052109;28;20550;-71
2023/04/17 22:05:56;;;;;;;7.07;3.30;;;16.40;59.30;;;;;;5034235;28;20483;-71
2023/04/17 22:08:22;;;;;;;5.35;3.00;;;16.40;59.10;;;;;;5052174;28;20037;-70
2023/04/17 22:10:48;;;;;;;6.15;3.10;;;16.40;59.30;;;;;;5052255;28;20132;-71
2023/04/17 22:13:14;;;;;;;7.75;3.22;;;16.40;59.60;;;;;;5052190;28;20108;-71
2023/04/17 22:15:41;;;;;;;6.00;3.17;;;16.40;60.20;;;;;;5052117;28;20045;-71
2023/04/17 22:18:07;;;;;;;5.85;3.00;;;16.40;59.40;;;;;;5051969;28;20040;-71
2023/04/17 22:20:32;;;;;;;6.22;3.08;;;16.30;59.90;;;;;;5052197;28;20437;-70
2023/04/17 22:22:58;;;;;;;6.88;3.33;;;16.30;60.20;;;;;;5051971;28;20025;-69
2023/04/17 22:25:24;;;;;;;5.60;3.30;;;16.30;60.60;;;;;;5052065;28;20120;-70
2023/04/17 22:27:50;;;;;;;5.30;3.20;;;16.30;60.50;;;;;;5051974;28;20076;-73
2023/04/17 22:30:15;;;;;;;6.07;3.20;;;16.30;60.70;;;;;;5051644;28;20033;-68
2023/04/17 22:32:41;;;;;;;6.65;3.40;;;16.20;60.80;;;;;;5051795;28;20064;-71
2023/04/17 22:35:07;;;;;;;6.60;3.30;;;16.20;60.90;;;;;;5052046;28;20068;-71
2023/04/17 22:37:33;;;;;;;9.52;4.15;;;16.20;61.10;;;;;;5052107;28;20502;-71
2023/04/17 22:39:59;;;;;;;6.75;3.10;;;16.20;61.20;;;;;;5051901;28;20051;-71
2023/04/17 22:42:25;;;;;;;8.05;3.78;;;16.30;61.70;;;;;;5052061;28;20041;-71
2023/04/17 22:44:50;;;;;;;6.22;3.80;;;16.20;61.40;;;;;;5051727;28;20067;-71
2023/04/17 22:47:17;;;;;;;5.90;3.22;;;16.30;61.80;;;;;;5051694;28;20063;-69
2023/04/17 22:49:42;;;;;;;7.07;3.33;;;16.30;61.60;;;;;;5051813;28;20033;-71
2023/04/17 22:52:09;;;;;;;6.22;3.60;;;16.30;61.50;;;;;;5051621;28;20390;-70
2023/04/17 22:54:35;;;;;;;4.95;2.95;;;16.30;61.60;;;;;;5051647;28;20029;-70
2023/04/17 22:57:03;;;;;;;6.15;3.35;;;16.20;61.60;;;;;;5051530;28;20033;-70
2023/04/17 22:59:29;;;;;;;6.43;3.47;;;16.20;61.50;;;;;;5051838;28;20029;-71
2023/04/17 23:01:55;;;;;;;7.45;3.70;;;16.20;61.90;;;;;;5051594;28;20048;-70
2023/04/17 23:04:22;;;;;;;7.25;3.22;;;16.10;61.80;;;;;;5051632;28;20028;-71
2023/04/17 23:06:47;;;;;;;6.95;3.28;;;16.10;61.90;;;;;;5055308;28;20132;-70
2023/04/17 23:09:13;;;;;;;5.85;3.03;;;16.10;62.10;;;;;;5055456;28;20104;-69
2023/04/17 23:11:39;;;;;;;6.32;3.50;;;16.10;62.10;;;;;;5055063;28;20043;-69
2023/04/17 23:14:05;;;;;;;8.68;3.78;;;16.10;62.20;;;;;;5055495;28;20033;-70
2023/04/17 23:16:31;;;;;;;6.53;3.70;;;16.00;62.40;;;;;;5055158;28;20091;-70
2023/04/17 23:18:57;;;;;;;7.15;3.88;;;16.00;62.40;;;;;;5055065;28;20572;-71
2023/04/17 23:21:23;;;;;;;8.35;3.60;;;16.00;62.50;;;;;;5055011;28;20072;-70
2023/04/17 23:23:50;;;;;;;6.30;3.90;;;16.00;62.50;;;;;;5055014;28;20501;-71
2023/04/17 23:26:16;;;;;;;6.45;4.18;;;16.00;62.70;;;;;;5055054;28;20037;-70
2023/04/17 23:28:42;;;;;;;6.28;3.50;;;16.00;62.80;;;;;;5054584;28;20037;-70
2023/04/17 23:31:08;;;;;;;8.43;3.55;;;15.90;62.60;;;;;;5054689;28;20041;-69
2023/04/17 23:33:34;;;;;;;5.72;4.15;;;15.90;62.50;;;;;;5054672;28;20036;-69
2023/04/17 23:36:00;;;;;;;5.70;3.30;;;15.90;62.70;;;;;;5054248;28;20119;-70
2023/04/17 23:38:25;;;;;;;8.75;4.00;;;15.90;62.80;;;;;;5054405;28;20044;-71
2023/04/17 23:40:51;;;;;;;5.85;3.08;;;15.90;62.80;;;;;;5054384;28;20220;-69
2023/04/17 23:43:17;;;;;;;5.85;3.47;;;15.90;62.70;;;;;;5054573;28;20063;-70